createdAt,value
2023-04-26T00:01:38.646Z,5.80
2023-04-26T00:05:04.422Z,6.10
2023-04-26T00:08:41.147Z,10.20
2023-04-26T00:12:37.346Z,7.70
2023-04-26T00:16:20.748Z,8.30
2023-04-26T00:19:45.242Z,8.10
2023-04-26T00:23:23.081Z,2.70
2023-04-26T00:27:19.370Z,5.40
2023-04-26T00:31:03.389Z,7.00
2023-04-26T00:34:35.980Z,6.50
2023-04-26T00:38:24.289Z,7.80
2023-04-26T00:41:49.822Z,8.90
2023-04-26T00:45:45.794Z,8.70
2023-04-26T00:49:16.046Z,6.80
2023-04-26T00:52:48.345Z,3.00
2023-04-26T00:56:45.320Z,5.00
2023-04-26T01:00:10.334Z,6.40
2023-04-26T01:04:06.164Z,6.50
2023-04-26T01:07:32.443Z,5.00
2023-04-26T01:11:08.427Z,10.00
2023-04-26T01:14:46.744Z,4.90
2023-04-26T01:18:42.923Z,5.40
2023-04-26T01:22:07.186Z,2.90
2023-04-26T01:26:03.584Z,4.20
2023-04-26T01:29:47.043Z,6.70
2023-04-26T01:33:11.622Z,9.00
2023-04-26T01:37:08.466Z,4.60
2023-04-26T01:40:51.389Z,6.30
2023-04-26T01:44:16.146Z,6.50
2023-04-26T01:47:53.834Z,10.30
2023-04-26T01:51:31.792Z,9.00
2023-04-26T01:55:08.993Z,7.10
2023-04-26T01:59:05.613Z,5.10
2023-04-26T02:02:49.155Z,3.90
2023-04-26T02:06:13.886Z,6.40
2023-04-26T02:10:10.358Z,4.60
2023-04-26T02:13:34.982Z,12.70
2023-04-26T02:17:31.963Z,8.20
2023-04-26T02:21:18.694Z,7.80
2023-04-26T02:24:42.909Z,11.00
2023-04-26T02:28:21.153Z,6.90
2023-04-26T02:31:58.932Z,9.80
2023-04-26T02:35:54.967Z,6.90
2023-04-26T02:39:38.136Z,7.40
2023-04-26T02:43:02.640Z,4.60
2023-04-26T02:46:40.246Z,6.20
2023-04-26T02:50:36.811Z,12.90
2023-04-26T02:54:21.086Z,6.70
2023-04-26T02:58:05.735Z,8.60
2023-04-26T03:01:29.821Z,4.10
2023-04-26T03:05:08.836Z,6.30
2023-04-26T03:09:05.165Z,8.50
2023-04-26T03:12:29.675Z,8.90
2023-04-26T03:16:27.850Z,14.70
2023-04-26T03:20:11.933Z,7.90
2023-04-26T03:23:55.129Z,6.90
2023-04-26T03:27:20.262Z,9.30
2023-04-26T03:31:16.508Z,7.80
2023-04-26T03:35:00.644Z,12.00
2023-04-26T03:38:25.069Z,7.50
2023-04-26T03:42:03.975Z,6.10
2023-04-26T03:45:39.863Z,11.00
2023-04-26T03:49:36.612Z,9.50
2023-04-26T03:53:19.653Z,7.20
2023-04-26T03:56:43.625Z,4.60
2023-04-26T04:00:43.812Z,4.50
2023-04-26T04:04:27.984Z,5.10
2023-04-26T04:08:11.449Z,6.40
2023-04-26T04:11:54.793Z,6.40
2023-04-26T04:15:20.480Z,5.00
2023-04-26T04:18:57.379Z,6.50
2023-04-26T04:22:53.676Z,8.10
2023-04-26T04:26:37.334Z,10.00
2023-04-26T04:30:03.528Z,7.80
2023-04-26T04:33:58.542Z,8.50
2023-04-26T04:37:43.309Z,5.30
2023-04-26T04:41:08.705Z,8.40
2023-04-26T04:44:50.112Z,11.40
2023-04-26T04:48:22.944Z,2.40
2023-04-26T04:52:21.105Z,8.00
2023-04-26T04:56:05.761Z,2.60
2023-04-26T04:59:29.853Z,9.60
2023-04-26T05:03:26.747Z,5.10
2023-04-26T05:07:10.492Z,5.80
2023-04-26T05:10:36.563Z,7.90
2023-04-26T05:14:13.975Z,6.00
2023-04-26T05:17:51.895Z,4.50
2023-04-26T05:21:29.398Z,8.10
2023-04-26T05:25:08.637Z,6.20
2023-04-26T05:29:03.766Z,5.80
2023-04-26T05:32:37.606Z,4.40
2023-04-26T05:36:33.837Z,6.50
2023-04-26T05:39:58.245Z,3.20
2023-04-26T05:43:35.723Z,5.00
2023-04-26T05:47:13.612Z,3.20
2023-04-26T05:51:09.881Z,6.80
2023-04-26T05:54:34.057Z,6.30
2023-04-26T05:58:11.680Z,2.30
2023-04-26T06:01:49.362Z,4.20
2023-04-26T06:05:45.987Z,6.20
2023-04-26T06:09:31.764Z,1.60
2023-04-26T06:13:14.900Z,6.30
2023-04-26T06:16:43.013Z,9.20
2023-04-26T06:20:37.167Z,5.90
2023-04-26T06:24:03.979Z,2.70
2023-04-26T06:28:00.335Z,3.90
2023-04-26T06:31:25.012Z,4.20
2023-04-26T06:35:02.511Z,5.60
2023-04-26T06:38:59.134Z,5.10
2023-04-26T06:42:42.838Z,7.90
2023-04-26T06:46:23.052Z,5.70
2023-04-26T06:50:00.600Z,3.20
2023-04-26T06:54:00.341Z,7.10
2023-04-26T06:57:43.409Z,3.60
2023-04-26T07:01:08.654Z,6.80
2023-04-26T07:04:45.970Z,6.00
2023-04-26T07:08:41.998Z,3.50
2023-04-26T07:12:06.790Z,5.40
2023-04-26T07:15:44.396Z,6.30
2023-04-26T07:19:21.892Z,10.40
2023-04-26T07:22:59.686Z,4.90
2023-04-26T07:26:37.294Z,9.80
2023-04-26T07:30:33.813Z,7.40
2023-04-26T07:34:17.161Z,2.00
2023-04-26T07:37:44.007Z,6.00
2023-04-26T07:41:38.611Z,2.90
2023-04-26T07:45:21.937Z,1.60
2023-04-26T07:48:47.316Z,2.90
2023-04-26T07:52:43.929Z,1.70
2023-04-26T07:56:09.167Z,6.00
2023-04-26T08:00:09.280Z,2.40
2023-04-26T08:03:37.703Z,3.70
2023-04-26T08:07:14.506Z,4.60
2023-04-26T08:11:11.474Z,2.80
2023-04-26T08:14:36.917Z,9.30
2023-04-26T08:18:33.024Z,1.70
2023-04-26T08:21:57.431Z,3.10
2023-04-26T08:25:34.986Z,2.00
2023-04-26T08:29:12.960Z,4.90
2023-04-26T08:33:09.952Z,5.30
2023-04-26T08:36:38.430Z,0.80
2023-04-26T08:40:32.240Z,3.50
2023-04-26T08:44:17.254Z,2.50
2023-04-26T08:47:45.921Z,2.90
2023-04-26T08:51:21.699Z,2.90
2023-04-26T08:55:17.232Z,4.00
2023-04-26T08:59:01.669Z,1.60
2023-04-26T09:02:50.684Z,4.20
2023-04-26T09:06:16.579Z,5.00
2023-04-26T09:09:55.909Z,1.70
2023-04-26T09:13:49.780Z,6.10
2023-04-26T09:17:25.684Z,5.20
2023-04-26T09:21:08.849Z,4.30
2023-04-26T09:24:53.797Z,2.20
2023-04-26T09:28:22.849Z,1.90
2023-04-26T09:32:14.871Z,2.30
2023-04-26T09:35:42.377Z,5.20
2023-04-26T09:39:39.866Z,8.60
2023-04-26T09:43:07.912Z,4.80
2023-04-26T09:47:04.934Z,8.20
2023-04-26T09:50:31.546Z,2.30
2023-04-26T09:54:37.984Z,1.80
2023-04-26T09:58:10.640Z,2.50
2023-04-26T10:01:40.392Z,2.10
2023-04-26T10:05:17.925Z,4.20
2023-04-26T10:09:15.236Z,1.70
2023-04-26T10:32:02.740Z,3.40
2023-04-26T10:35:31.115Z,1.30
2023-04-26T10:39:25.012Z,3.90
2023-04-26T10:42:51.034Z,1.90
2023-04-26T10:46:39.129Z,2.90
2023-04-26T10:50:24.784Z,1.40
2023-04-26T10:54:08.498Z,1.70
2023-04-26T10:57:52.634Z,3.90
2023-04-26T11:01:21.060Z,1.90
2023-04-26T11:04:58.114Z,2.00
2023-04-26T11:08:53.764Z,2.30
2023-04-26T11:12:18.554Z,1.70
2023-04-26T11:16:16.618Z,4.20
2023-04-26T11:19:41.863Z,4.60
2023-04-26T11:23:37.805Z,1.50
2023-04-26T11:27:27.564Z,2.30
2023-04-26T11:30:52.643Z,1.50
2023-04-26T11:34:50.901Z,3.20
2023-04-26T11:38:15.814Z,1.30
2023-04-26T11:42:12.600Z,1.40
2023-04-26T11:45:38.430Z,1.80
2023-04-26T11:49:36.370Z,3.40
2023-04-26T11:53:19.583Z,1.30
2023-04-26T11:57:18.626Z,1.70
2023-04-26T12:01:03.341Z,1.30
2023-04-26T12:04:47.001Z,3.40
2023-04-26T12:08:12.678Z,4.20
2023-04-26T12:11:59.463Z,2.90
2023-04-26T12:15:32.177Z,0.90
2023-04-26T12:19:09.061Z,0.50
2023-04-26T12:22:42.456Z,2.80
2023-04-26T12:26:20.547Z,4.20
2023-04-26T12:30:17.016Z,2.50
2023-04-26T12:33:42.016Z,3.10
2023-04-26T12:37:41.181Z,2.50
2023-04-26T12:41:06.329Z,1.00
2023-04-26T12:44:43.112Z,3.00
2023-04-26T12:48:40.142Z,1.20
2023-04-26T12:52:04.710Z,1.70
2023-04-26T12:55:42.313Z,3.00
2023-04-26T12:59:38.753Z,0.70
2023-04-26T13:03:03.152Z,1.60
2023-04-26T13:06:41.280Z,2.20
2023-04-26T13:10:18.637Z,6.50
2023-04-26T13:13:56.066Z,2.80
2023-04-26T13:17:35.435Z,2.00
2023-04-26T13:21:30.297Z,3.90
2023-04-26T13:25:15.098Z,3.80
2023-04-26T13:28:39.807Z,0.90
2023-04-26T13:32:39.492Z,0.60
2023-04-26T13:36:22.701Z,3.80
2023-04-26T13:40:07.668Z,2.50
2023-04-26T13:43:32.163Z,2.90
2023-04-26T13:47:10.703Z,4.00
2023-04-26T13:50:47.421Z,3.70
2023-04-26T13:54:28.011Z,1.10
2023-04-26T13:58:21.623Z,0.90
2023-04-26T14:01:46.462Z,4.10
2023-04-26T14:05:42.241Z,3.50
2023-04-26T14:09:06.945Z,4.00
2023-04-26T14:12:44.198Z,1.10
2023-04-26T14:16:42.858Z,2.20
2023-04-26T14:20:26.130Z,0.90
2023-04-26T14:24:10.555Z,2.30
2023-04-26T14:27:54.300Z,3.70
2023-04-26T14:31:19.831Z,5.90
2023-04-26T14:35:00.089Z,11.80
2023-04-26T14:38:33.980Z,3.80
2023-04-26T14:42:30.542Z,2.40
2023-04-26T14:46:16.082Z,2.50
2023-04-26T14:49:41.307Z,12.00
2023-04-26T14:53:18.312Z,2.70
2023-04-26T14:57:14.745Z,1.70
2023-04-26T15:00:59.114Z,4.90
2023-04-26T15:04:44.147Z,2.00
2023-04-26T15:08:08.544Z,4.00
2023-04-26T15:11:48.009Z,6.10
2023-04-26T15:15:24.298Z,2.70
2023-04-26T15:19:01.834Z,2.50
2023-04-26T15:22:58.015Z,2.30
2023-04-26T15:26:26.076Z,5.40
2023-04-26T15:30:00.284Z,2.90
2023-04-26T15:33:56.455Z,5.70
2023-04-26T15:37:39.741Z,6.00
2023-04-26T15:41:22.962Z,7.90
2023-04-26T15:45:06.659Z,2.70
2023-04-26T15:48:31.219Z,1.60
2023-04-26T15:52:09.127Z,0.80
2023-04-26T15:56:18.339Z,2.70
2023-04-26T15:59:47.080Z,2.70
2023-04-26T16:03:24.434Z,3.50
2023-04-26T16:07:00.630Z,1.50
2023-04-26T16:11:01.722Z,1.80
2023-04-26T16:14:26.938Z,5.00
2023-04-26T16:18:04.362Z,5.80
2023-04-26T16:21:44.862Z,1.90
2023-04-26T16:25:38.444Z,1.90
2023-04-26T16:29:04.382Z,3.30
2023-04-26T16:33:10.130Z,2.20
2023-04-26T16:37:03.119Z,5.30
2023-04-26T16:40:28.224Z,6.10
2023-04-26T16:44:25.700Z,2.90
2023-04-26T16:47:51.309Z,1.20
2023-04-26T16:51:29.185Z,2.40
2023-04-26T16:55:25.620Z,2.50
2023-04-26T16:59:09.139Z,5.40
2023-04-26T17:02:55.051Z,3.50
2023-04-26T17:06:22.835Z,4.80
2023-04-26T17:10:19.277Z,3.50
2023-04-26T17:14:03.792Z,5.10
2023-04-26T17:17:47.875Z,2.40
2023-04-26T17:21:13.221Z,3.80
2023-04-26T17:25:09.458Z,6.00
2023-04-26T17:28:37.653Z,7.70
2023-04-26T17:32:13.473Z,3.80
2023-04-26T17:35:50.796Z,4.80
2023-04-26T17:39:28.377Z,9.90
2023-04-26T17:43:25.031Z,10.60
2023-04-26T17:46:49.121Z,8.20
2023-04-26T17:50:45.963Z,16.40
2023-04-26T17:54:29.618Z,11.50
2023-04-26T17:58:12.971Z,11.70
2023-04-26T18:01:37.702Z,11.80
2023-04-26T18:05:34.113Z,10.50
2023-04-26T18:08:58.337Z,13.80
2023-04-26T18:12:39.725Z,14.70
2023-04-26T18:16:32.620Z,17.70
2023-04-26T18:20:16.380Z,18.50
2023-04-26T18:23:45.696Z,34.90
2023-04-26T18:27:18.453Z,26.50
2023-04-26T18:31:15.549Z,19.00
2023-04-26T18:34:58.788Z,14.30
2023-04-26T18:38:43.441Z,19.60
2023-04-26T18:42:11.894Z,17.50
2023-04-26T18:45:49.064Z,13.60
2023-04-26T18:49:26.876Z,13.80
2023-04-26T18:53:25.839Z,23.50
2023-04-26T18:57:11.409Z,58.40
2023-04-26T19:00:35.309Z,61.20
2023-04-26T19:04:16.342Z,44.80
2023-04-26T19:08:09.948Z,33.60
2023-04-26T19:11:53.985Z,24.00
2023-04-26T19:15:40.336Z,56.10
2023-04-26T19:19:24.113Z,112.80
2023-04-26T19:23:07.268Z,181.60
2023-04-26T19:26:50.763Z,196.60
2023-04-26T19:30:19.285Z,202.80
2023-04-26T19:33:59.046Z,79.30
2023-04-26T19:37:34.934Z,84.70
2023-04-26T19:41:10.250Z,64.50
2023-04-26T19:44:49.974Z,73.20
2023-04-26T19:48:26.365Z,58.90
2023-04-26T19:52:22.319Z,50.20
2023-04-26T19:55:46.672Z,37.00
2023-04-26T19:59:48.495Z,23.90
2023-04-26T20:03:40.693Z,27.50
2023-04-26T20:07:27.225Z,23.90
2023-04-26T20:10:53.287Z,22.30
2023-04-26T20:14:30.789Z,25.90
2023-04-26T20:18:06.873Z,19.00
2023-04-26T20:21:44.150Z,22.60
2023-04-26T20:25:22.501Z,22.30
2023-04-26T20:29:18.397Z,32.20
2023-04-26T20:32:48.445Z,26.00
2023-04-26T20:36:20.968Z,27.60
2023-04-26T20:39:59.717Z,28.70
2023-04-26T20:43:36.546Z,20.90
2023-04-26T20:47:13.625Z,25.20
2023-04-26T20:51:13.194Z,23.30
2023-04-26T20:54:39.389Z,27.50
2023-04-26T20:58:35.998Z,16.40
2023-04-26T21:02:04.599Z,13.70
2023-04-26T21:05:39.886Z,12.80
2023-04-26T21:09:35.830Z,19.10
2023-04-26T21:13:19.847Z,16.90
2023-04-26T21:16:48.358Z,16.00
2023-04-26T21:20:21.959Z,14.80
2023-04-26T21:23:59.733Z,19.20
2023-04-26T21:27:37.796Z,13.90
2023-04-26T21:31:15.197Z,18.00
2023-04-26T21:34:52.804Z,7.50
2023-04-26T21:38:30.360Z,14.40
2023-04-26T21:42:27.233Z,18.10
2023-04-26T21:46:11.206Z,12.50
2023-04-26T21:49:39.599Z,11.90
2023-04-26T21:53:18.648Z,15.00
2023-04-26T21:57:14.618Z,15.80
2023-04-26T22:01:09.390Z,17.60
2023-04-26T22:04:54.133Z,14.90
2023-04-26T22:08:40.587Z,17.50
2023-04-26T22:12:09.908Z,7.50
2023-04-26T22:16:05.220Z,10.20
2023-04-26T22:19:49.106Z,16.00
2023-04-26T22:23:32.077Z,11.50
2023-04-26T22:27:15.005Z,12.70
2023-04-26T22:30:58.496Z,12.30
2023-04-26T22:34:43.796Z,11.90
2023-04-26T22:38:30.622Z,14.30
2023-04-26T22:42:13.818Z,11.50
2023-04-26T22:45:41.174Z,15.60
2023-04-26T22:49:20.043Z,13.10
2023-04-26T22:53:12.549Z,11.60
2023-04-26T22:56:37.531Z,11.00
2023-04-26T23:00:15.939Z,11.00
2023-04-26T23:03:52.221Z,8.10
2023-04-26T23:07:30.748Z,7.60
2023-04-26T23:11:27.174Z,16.80
2023-04-26T23:14:51.834Z,15.40
2023-04-26T23:18:30.127Z,12.30
2023-04-26T23:22:28.740Z,16.30
2023-04-26T23:25:53.435Z,17.50
2023-04-26T23:29:50.766Z,11.70
2023-04-26T23:33:33.664Z,13.10
2023-04-26T23:37:17.319Z,13.20
2023-04-26T23:41:03.885Z,9.50
2023-04-26T23:44:47.320Z,12.10
2023-04-26T23:48:11.517Z,12.20
2023-04-26T23:51:49.333Z,11.90
2023-04-26T23:55:46.149Z,11.80
2023-04-26T23:59:29.544Z,10.30
